createdAt,value
2023-01-30T00:00:01.000Z,98.81
2023-01-30T00:05:02.000Z,98.78
2023-01-30T00:10:02.000Z,98.84
2023-01-30T00:15:02.000Z,99.04
2023-01-30T00:20:01.000Z,99.01
2023-01-30T00:25:01.000Z,99.24
2023-01-30T00:30:01.000Z,99.16
2023-01-30T00:35:02.000Z,98.97
2023-01-30T00:40:01.000Z,98.92
2023-01-30T00:45:01.000Z,99.00
2023-01-30T00:50:02.000Z,99.00
2023-01-30T00:55:01.000Z,99.15
2023-01-30T01:00:02.000Z,99.26
2023-01-30T01:05:02.000Z,99.52
2023-01-30T01:10:02.000Z,99.41
2023-01-30T01:15:02.000Z,99.36
2023-01-30T01:20:01.000Z,99.13
2023-01-30T01:25:02.000Z,99.02
2023-01-30T01:30:02.000Z,98.88
2023-01-30T01:35:02.000Z,98.98
2023-01-30T01:40:01.000Z,99.01
2023-01-30T01:45:02.000Z,98.97
2023-01-30T01:50:02.000Z,99.09
2023-01-30T01:55:02.000Z,99.48
2023-01-30T02:00:02.000Z,99.49
2023-01-30T02:05:02.000Z,99.38
2023-01-30T02:10:02.000Z,99.16
2023-01-30T02:15:02.000Z,98.96
2023-01-30T02:20:02.000Z,98.91
2023-01-30T02:25:02.000Z,98.74
2023-01-30T02:30:02.000Z,98.85
2023-01-30T02:35:02.000Z,98.93
2023-01-30T02:40:02.000Z,98.98
2023-01-30T02:45:02.000Z,99.03
2023-01-30T02:50:02.000Z,99.06
2023-01-30T02:55:02.000Z,99.29
2023-01-30T03:00:02.000Z,99.12
2023-01-30T03:05:02.000Z,99.45
2023-01-30T03:10:02.000Z,99.52
2023-01-30T03:15:02.000Z,99.61
2023-01-30T03:20:02.000Z,99.48
2023-01-30T03:25:02.000Z,99.33
2023-01-30T03:30:02.000Z,99.48
2023-01-30T03:35:02.000Z,99.45
2023-01-30T03:40:02.000Z,99.48
2023-01-30T03:45:02.000Z,99.45
2023-01-30T03:50:02.000Z,99.51
2023-01-30T03:55:02.000Z,99.38
2023-01-30T04:00:02.000Z,99.63
2023-01-30T04:05:02.000Z,99.29
2023-01-30T04:10:02.000Z,99.32
2023-01-30T04:15:02.000Z,99.18
2023-01-30T04:20:02.000Z,98.80
2023-01-30T04:25:02.000Z,98.64
2023-01-30T04:30:02.000Z,98.49
2023-01-30T04:35:02.000Z,98.41
2023-01-30T04:40:02.000Z,98.69
2023-01-30T04:45:02.000Z,98.80
2023-01-30T04:50:02.000Z,98.45
2023-01-30T04:55:02.000Z,98.37
2023-01-30T05:00:02.000Z,98.45
2023-01-30T05:05:02.000Z,98.57
2023-01-30T05:10:02.000Z,98.34
2023-01-30T05:15:02.000Z,98.23
2023-01-30T05:20:02.000Z,98.23
2023-01-30T05:25:02.000Z,98.33
2023-01-30T05:30:02.000Z,98.42
2023-01-30T05:35:03.000Z,98.53
2023-01-30T05:40:02.000Z,98.81
2023-01-30T05:45:02.000Z,99.01
2023-01-30T05:50:03.000Z,98.81
2023-01-30T05:55:02.000Z,98.73
2023-01-30T06:00:03.000Z,98.70
2023-01-30T06:05:04.000Z,98.62
2023-01-30T06:10:02.000Z,98.74
2023-01-30T06:15:02.000Z,98.80
2023-01-30T06:20:02.000Z,98.97
2023-01-30T06:25:02.000Z,99.01
2023-01-30T06:30:02.000Z,98.93
2023-01-30T06:35:02.000Z,98.76
2023-01-30T06:40:02.000Z,98.93
2023-01-30T06:45:02.000Z,98.87
2023-01-30T06:50:02.000Z,99.04
2023-01-30T06:55:02.000Z,99.21
2023-01-30T07:00:02.000Z,99.21
2023-01-30T07:05:02.000Z,99.26
2023-01-30T07:10:02.000Z,99.20
2023-01-30T07:15:02.000Z,99.20
2023-01-30T07:20:02.000Z,99.26
2023-01-30T07:25:02.000Z,99.83
2023-01-30T07:30:02.000Z,99.94
2023-01-30T07:35:02.000Z,100.06
2023-01-30T07:40:02.000Z,100.12
2023-01-30T07:45:02.000Z,100.15
2023-01-30T07:50:02.000Z,100.20
2023-01-30T07:55:02.000Z,100.10
2023-01-30T08:00:02.000Z,99.67
2023-01-30T08:05:02.000Z,99.28
2023-01-30T08:10:02.000Z,99.16
2023-01-30T08:15:02.000Z,99.15
2023-01-30T08:20:02.000Z,98.80
2023-01-30T08:25:02.000Z,98.74
2023-01-30T08:30:02.000Z,98.45
2023-01-30T08:35:02.000Z,98.19
2023-01-30T08:40:02.000Z,98.22
2023-01-30T08:45:02.000Z,97.96
2023-01-30T08:50:02.000Z,98.29
2023-01-30T08:55:02.000Z,98.00
2023-01-30T09:00:02.000Z,97.75
2023-01-30T09:05:02.000Z,97.63
2023-01-30T09:10:02.000Z,97.51
2023-01-30T09:15:02.000Z,97.02
2023-01-30T09:20:02.000Z,96.49
2023-01-30T09:25:02.000Z,96.17
2023-01-30T09:30:02.000Z,96.01
2023-01-30T09:35:02.000Z,95.23
2023-01-30T09:40:02.000Z,94.04
2023-01-30T09:45:02.000Z,93.29
2023-01-30T09:50:02.000Z,92.21
2023-01-30T09:55:02.000Z,91.53
2023-01-30T10:00:02.000Z,91.71
2023-01-30T10:05:02.000Z,91.59
2023-01-30T10:10:02.000Z,90.57
2023-01-30T10:15:02.000Z,90.28
2023-01-30T10:20:02.000Z,89.60
2023-01-30T10:25:02.000Z,88.96
2023-01-30T10:30:02.000Z,88.73
2023-01-30T10:35:02.000Z,88.73
2023-01-30T10:40:02.000Z,88.10
2023-01-30T10:45:02.000Z,87.67
2023-01-30T10:50:02.000Z,87.42
2023-01-30T10:55:02.000Z,88.01
2023-01-30T11:00:03.000Z,87.22
2023-01-30T11:05:02.000Z,87.38
2023-01-30T11:10:02.000Z,87.09
2023-01-30T11:15:02.000Z,86.80
2023-01-30T11:20:02.000Z,86.69
2023-01-30T11:25:02.000Z,86.38
2023-01-30T11:30:02.000Z,86.32
2023-01-30T11:35:02.000Z,86.58
2023-01-30T11:40:02.000Z,85.87
2023-01-30T11:45:03.000Z,86.50
2023-01-30T11:50:02.000Z,86.41
2023-01-30T11:55:03.000Z,86.16
2023-01-30T12:00:02.000Z,86.54
2023-01-30T12:05:02.000Z,86.67
2023-01-30T12:10:02.000Z,86.18
2023-01-30T12:15:02.000Z,85.71
2023-01-30T12:20:02.000Z,86.31
2023-01-30T12:25:02.000Z,86.18
2023-01-30T12:30:02.000Z,86.01
2023-01-30T12:35:02.000Z,85.74
2023-01-30T12:40:02.000Z,85.73
2023-01-30T12:45:02.000Z,84.88
2023-01-30T12:50:03.000Z,84.39
2023-01-30T12:55:03.000Z,84.13
2023-01-30T13:00:03.000Z,84.63
2023-01-30T13:05:02.000Z,84.32
2023-01-30T13:10:02.000Z,84.34
2023-01-30T13:15:03.000Z,83.89
2023-01-30T13:20:03.000Z,83.91
2023-01-30T13:25:03.000Z,84.45
2023-01-30T13:30:03.000Z,84.94
2023-01-30T13:35:03.000Z,84.94
2023-01-30T13:40:02.000Z,85.36
2023-01-30T13:45:02.000Z,85.44
2023-01-30T13:50:02.000Z,84.42
2023-01-30T13:55:02.000Z,84.81
2023-01-30T14:00:02.000Z,84.37
2023-01-30T14:05:02.000Z,84.68
2023-01-30T14:10:02.000Z,85.39
2023-01-30T14:15:03.000Z,85.67
2023-01-30T14:20:03.000Z,85.23
2023-01-30T14:25:02.000Z,85.39
2023-01-30T14:30:02.000Z,85.67
2023-01-30T14:35:02.000Z,85.62
2023-01-30T14:40:02.000Z,85.55
2023-01-30T14:45:03.000Z,85.73
2023-01-30T14:50:02.000Z,85.00
2023-01-30T14:55:02.000Z,85.10
2023-01-30T15:00:03.000Z,85.21
2023-01-30T15:05:03.000Z,85.31
2023-01-30T15:10:03.000Z,85.13
2023-01-30T15:15:02.000Z,85.31
2023-01-30T15:20:03.000Z,85.67
2023-01-30T15:25:02.000Z,85.89
2023-01-30T15:30:03.000Z,85.80
2023-01-30T15:35:02.000Z,86.09
2023-01-30T15:40:02.000Z,86.09
2023-01-30T15:45:02.000Z,86.44
2023-01-30T15:50:03.000Z,86.65
2023-01-30T15:55:02.000Z,86.89
2023-01-30T16:00:05.000Z,87.18
2023-01-30T16:05:03.000Z,87.23
2023-01-30T16:10:03.000Z,87.62
2023-01-30T16:15:03.000Z,87.60
2023-01-30T16:20:02.000Z,88.25
2023-01-30T16:25:03.000Z,88.74
2023-01-30T16:30:02.000Z,89.20
2023-01-30T16:35:02.000Z,89.44
2023-01-30T16:40:02.000Z,90.15
2023-01-30T16:45:03.000Z,91.19
2023-01-30T16:50:02.000Z,92.32
2023-01-30T16:55:03.000Z,92.85
2023-01-30T17:00:03.000Z,93.66
2023-01-30T17:05:03.000Z,94.58
2023-01-30T17:10:03.000Z,95.28
2023-01-30T17:15:03.000Z,96.17
2023-01-30T17:20:03.000Z,96.89
2023-01-30T17:25:03.000Z,97.77
2023-01-30T17:30:03.000Z,98.34
2023-01-30T17:35:03.000Z,98.80
2023-01-30T17:40:03.000Z,99.26
2023-01-30T17:45:03.000Z,99.67
2023-01-30T17:50:03.000Z,100.09
2023-01-30T17:55:03.000Z,100.41
2023-01-30T18:00:02.000Z,100.61
2023-01-30T18:05:02.000Z,100.84
2023-01-30T18:10:03.000Z,100.93
2023-01-30T18:15:03.000Z,101.16
2023-01-30T18:20:03.000Z,101.25
2023-01-30T18:25:02.000Z,101.42
2023-01-30T18:30:03.000Z,101.65
2023-01-30T18:35:03.000Z,101.80
2023-01-30T18:40:03.000Z,101.97
2023-01-30T18:45:03.000Z,102.15
2023-01-30T18:50:03.000Z,102.26
2023-01-30T18:55:03.000Z,102.49
2023-01-30T19:00:03.000Z,102.63
2023-01-30T19:05:04.000Z,102.73
2023-01-30T19:10:03.000Z,102.09
2023-01-30T19:15:04.000Z,101.45
2023-01-30T19:20:03.000Z,101.99
2023-01-30T19:25:03.000Z,101.94
2023-01-30T19:30:03.000Z,102.23
2023-01-30T19:35:03.000Z,102.72
2023-01-30T19:40:03.000Z,101.97
2023-01-30T19:45:03.000Z,102.72
2023-01-30T19:50:03.000Z,103.12
2023-01-30T19:55:03.000Z,103.31
2023-01-30T20:00:03.000Z,103.41
2023-01-30T20:05:03.000Z,103.34
2023-01-30T20:10:03.000Z,103.13
2023-01-30T20:15:03.000Z,103.04
2023-01-30T20:20:03.000Z,102.82
2023-01-30T20:25:03.000Z,102.76
2023-01-30T20:30:03.000Z,102.87
2023-01-30T20:35:03.000Z,102.76
2023-01-30T20:40:03.000Z,103.42
2023-01-30T20:45:03.000Z,102.93
2023-01-30T20:50:03.000Z,102.96
2023-01-30T20:55:03.000Z,103.48
2023-01-30T21:00:03.000Z,104.09
2023-01-30T21:05:03.000Z,104.21
2023-01-30T21:10:03.000Z,104.16
2023-01-30T21:15:03.000Z,104.16
2023-01-30T21:20:03.000Z,104.15
2023-01-30T21:25:03.000Z,104.12
2023-01-30T21:30:03.000Z,104.05
2023-01-30T21:35:03.000Z,103.99
2023-01-30T21:40:03.000Z,103.93
2023-01-30T21:45:03.000Z,103.93
2023-01-30T21:50:03.000Z,104.02
2023-01-30T21:55:03.000Z,104.12
2023-01-30T22:00:03.000Z,104.05
2023-01-30T22:05:03.000Z,104.04
2023-01-30T22:10:03.000Z,103.98
2023-01-30T22:15:03.000Z,103.98
2023-01-30T22:20:03.000Z,103.95
2023-01-30T22:25:04.000Z,103.31
2023-01-30T22:30:03.000Z,103.92
2023-01-30T22:35:03.000Z,103.63
2023-01-30T22:40:03.000Z,103.72
2023-01-30T22:45:03.000Z,103.31
2023-01-30T22:50:03.000Z,103.96
2023-01-30T22:55:03.000Z,104.01
2023-01-30T23:00:04.000Z,104.22
2023-01-30T23:05:03.000Z,103.79
2023-01-30T23:10:03.000Z,104.50
2023-01-30T23:15:03.000Z,104.60
2023-01-30T23:20:03.000Z,104.60
2023-01-30T23:25:03.000Z,104.60
2023-01-30T23:30:03.000Z,104.57
2023-01-30T23:35:03.000Z,104.47
2023-01-30T23:40:03.000Z,104.41
2023-01-30T23:45:03.000Z,104.41
2023-01-30T23:50:03.000Z,104.35
2023-01-30T23:55:03.000Z,104.25
